createdAt,value
2018-12-12T00:00:48.788Z,4.60
2018-12-12T00:01:48.779Z,4.30
2018-12-12T00:02:48.778Z,7.40
2018-12-12T00:03:48.752Z,5.00
2018-12-12T00:04:48.755Z,6.50
2018-12-12T00:05:48.737Z,5.00
2018-12-12T00:06:48.721Z,4.80
2018-12-12T00:07:48.726Z,4.80
2018-12-12T00:09:48.686Z,6.00
2018-12-12T00:10:48.680Z,4.60
2018-12-12T00:11:48.666Z,5.10
2018-12-12T00:12:48.674Z,4.20
2018-12-12T00:13:48.659Z,5.20
2018-12-12T00:14:48.632Z,7.90
2018-12-12T00:15:48.622Z,4.60
2018-12-12T00:16:48.609Z,4.80
2018-12-12T00:17:48.859Z,4.50
2018-12-12T00:18:48.589Z,4.60
2018-12-12T00:19:48.576Z,4.30
2018-12-12T00:20:48.578Z,4.90
2018-12-12T00:21:48.555Z,4.80
2018-12-12T00:22:48.543Z,6.60
2018-12-12T00:23:48.551Z,5.20
2018-12-12T00:24:48.521Z,3.50
2018-12-12T00:25:48.509Z,5.10
2018-12-12T00:26:48.497Z,5.30
2018-12-12T00:27:48.491Z,4.20
2018-12-12T00:28:48.513Z,4.00
2018-12-12T00:29:48.469Z,4.50
2018-12-12T00:30:48.456Z,4.90
2018-12-12T00:31:48.442Z,5.80
2018-12-12T00:32:48.439Z,5.70
2018-12-12T00:33:48.443Z,4.70
2018-12-12T00:34:48.419Z,4.40
2018-12-12T00:35:48.403Z,5.80
2018-12-12T00:36:48.394Z,4.40
2018-12-12T00:37:48.375Z,5.10
2018-12-12T00:38:48.393Z,5.60
2018-12-12T00:39:48.361Z,4.90
2018-12-12T00:40:48.351Z,5.80
2018-12-12T00:41:48.335Z,4.90
2018-12-12T00:42:48.321Z,4.30
2018-12-12T00:43:48.356Z,5.20
2018-12-12T00:44:48.305Z,5.00
2018-12-12T00:45:48.298Z,5.30
2018-12-12T00:46:48.281Z,5.30
2018-12-12T00:47:48.269Z,6.70
2018-12-12T00:48:48.277Z,6.10
2018-12-12T00:49:48.245Z,6.20
2018-12-12T00:50:48.238Z,5.30
2018-12-12T00:51:48.225Z,4.20
2018-12-12T00:52:48.217Z,7.80
2018-12-12T00:53:48.228Z,5.20
2018-12-12T00:54:48.193Z,5.10
2018-12-12T00:55:48.183Z,4.70
2018-12-12T00:56:48.165Z,6.00
2018-12-12T00:57:48.158Z,5.40
2018-12-12T00:58:48.164Z,6.00
2018-12-12T00:59:48.134Z,5.70
2018-12-12T01:00:48.133Z,6.00
2018-12-12T01:01:48.131Z,4.60
2018-12-12T01:02:48.109Z,6.20
2018-12-12T01:03:48.111Z,5.00
2018-12-12T01:04:48.083Z,4.50
2018-12-12T01:05:48.072Z,4.80
2018-12-12T01:06:48.082Z,6.30
2018-12-12T01:07:48.051Z,5.70
2018-12-12T01:08:48.053Z,5.40
2018-12-12T01:09:48.025Z,6.50
2018-12-12T01:10:48.013Z,8.00
2018-12-12T01:11:48.006Z,7.50
2018-12-12T01:12:47.997Z,6.60
2018-12-12T01:13:47.983Z,5.80
2018-12-12T01:14:47.993Z,4.50
2018-12-12T01:15:47.966Z,5.00
2018-12-12T01:16:47.960Z,5.80
2018-12-12T01:17:47.941Z,5.80
2018-12-12T01:18:47.935Z,6.30
2018-12-12T01:19:47.933Z,4.80
2018-12-12T01:20:47.907Z,6.40
2018-12-12T01:21:47.895Z,5.10
2018-12-12T01:22:47.885Z,6.60
2018-12-12T01:23:47.871Z,5.10
2018-12-12T01:24:47.877Z,7.40
2018-12-12T01:25:47.851Z,5.10
2018-12-12T01:26:47.840Z,5.40
2018-12-12T01:27:47.831Z,5.00
2018-12-12T01:28:47.817Z,5.90
2018-12-12T01:29:47.916Z,5.60
2018-12-12T01:30:47.794Z,6.70
2018-12-12T01:31:47.793Z,4.60
2018-12-12T01:32:47.775Z,6.60
2018-12-12T01:33:47.767Z,6.30
2018-12-12T01:34:47.776Z,6.90
2018-12-12T01:35:47.751Z,5.30
2018-12-12T01:36:47.736Z,6.80
2018-12-12T01:37:47.723Z,5.80
2018-12-12T01:38:47.707Z,5.30
2018-12-12T01:39:47.746Z,5.80
2018-12-12T01:40:47.693Z,5.30
2018-12-12T01:41:47.684Z,5.00
2018-12-12T01:42:47.663Z,5.40
2018-12-12T01:43:47.656Z,5.70
2018-12-12T01:44:47.659Z,5.30
2018-12-12T01:45:47.635Z,6.50
2018-12-12T01:46:47.621Z,5.10
2018-12-12T01:47:47.611Z,6.10
2018-12-12T01:48:47.607Z,7.30
2018-12-12T01:49:47.609Z,6.30
2018-12-12T01:50:47.575Z,6.60
2018-12-12T01:51:47.569Z,5.50
2018-12-12T01:52:47.553Z,7.00
2018-12-12T01:53:47.549Z,6.20
2018-12-12T01:54:47.557Z,6.20
2018-12-12T01:55:47.525Z,6.00
2018-12-12T01:56:47.511Z,7.20
2018-12-12T01:57:47.499Z,8.20
2018-12-12T01:58:47.487Z,6.90
2018-12-12T01:59:47.477Z,7.20
2018-12-12T02:00:47.487Z,6.60
2018-12-12T02:01:47.492Z,5.10
2018-12-12T02:02:47.446Z,6.20
2018-12-12T02:03:47.433Z,5.60
2018-12-12T02:04:47.423Z,7.00
2018-12-12T02:05:47.435Z,6.70
2018-12-12T02:06:47.400Z,6.60
2018-12-12T02:07:47.389Z,6.40
2018-12-12T02:08:47.381Z,5.20
2018-12-12T02:09:47.367Z,7.70
2018-12-12T02:10:47.375Z,5.40
2018-12-12T02:11:47.353Z,6.50
2018-12-12T02:12:47.337Z,6.30
2018-12-12T02:13:47.332Z,5.60
2018-12-12T02:14:47.323Z,7.50
2018-12-12T02:15:47.321Z,5.90
2018-12-12T02:16:47.291Z,5.60
2018-12-12T02:17:47.281Z,6.00
2018-12-12T02:18:47.267Z,6.60
2018-12-12T02:19:47.256Z,6.10
2018-12-12T02:20:47.262Z,5.60
2018-12-12T02:21:47.238Z,6.30
2018-12-12T02:22:47.221Z,5.90
2018-12-12T02:23:47.213Z,5.00
2018-12-12T02:24:47.203Z,5.50
2018-12-12T02:25:47.208Z,7.20
2018-12-12T02:26:47.184Z,5.30
2018-12-12T02:27:47.171Z,5.40
2018-12-12T02:28:47.157Z,5.80
2018-12-12T02:29:47.155Z,5.40
2018-12-12T02:30:47.265Z,6.50
2018-12-12T02:31:47.130Z,7.80
2018-12-12T02:32:47.117Z,6.90
2018-12-12T02:33:47.106Z,7.40
2018-12-12T02:34:47.093Z,7.30
2018-12-12T02:35:47.108Z,5.90
2018-12-12T02:36:47.072Z,6.60
2018-12-12T02:37:47.057Z,5.60
2018-12-12T02:38:47.059Z,5.90
2018-12-12T02:39:47.200Z,8.70
2018-12-12T02:40:47.032Z,7.30
2018-12-12T02:41:47.042Z,6.10
2018-12-12T02:42:47.005Z,9.20
2018-12-12T02:43:46.991Z,6.20
2018-12-12T02:44:46.986Z,8.10
2018-12-12T02:45:46.971Z,8.00
2018-12-12T02:46:46.975Z,6.30
2018-12-12T02:47:46.952Z,7.40
2018-12-12T02:48:46.941Z,7.30
2018-12-12T02:49:46.926Z,6.80
2018-12-12T02:50:46.915Z,7.60
2018-12-12T02:51:46.925Z,7.00
2018-12-12T02:52:46.897Z,8.10
2018-12-12T02:53:46.883Z,6.70
2018-12-12T02:54:46.880Z,5.70
2018-12-12T02:55:46.870Z,6.70
2018-12-12T02:56:46.873Z,6.20
2018-12-12T02:57:46.836Z,7.00
2018-12-12T02:58:46.827Z,5.50
2018-12-12T02:59:46.819Z,6.50
2018-12-12T03:00:46.812Z,8.90
2018-12-12T03:01:46.811Z,5.40
2018-12-12T03:02:46.782Z,5.70
2018-12-12T03:03:46.775Z,5.70
2018-12-12T03:04:46.765Z,5.90
2018-12-12T03:05:46.755Z,5.80
2018-12-12T03:06:46.760Z,7.10
2018-12-12T03:07:46.750Z,7.40
2018-12-12T03:08:46.722Z,5.50
2018-12-12T03:09:46.709Z,6.90
2018-12-12T03:10:46.696Z,7.00
2018-12-12T03:11:46.688Z,7.90
2018-12-12T03:12:46.690Z,6.40
2018-12-12T03:13:46.664Z,5.70
2018-12-12T03:14:46.661Z,5.80
2018-12-12T03:15:46.642Z,7.10
2018-12-12T03:16:46.630Z,6.50
2018-12-12T03:17:46.639Z,5.70
2018-12-12T03:18:46.609Z,7.30
2018-12-12T03:19:46.601Z,6.10
2018-12-12T03:20:46.587Z,7.50
2018-12-12T03:21:46.581Z,7.40
2018-12-12T03:22:46.586Z,5.70
2018-12-12T03:23:46.549Z,6.40
2018-12-12T03:24:46.542Z,5.70
2018-12-12T03:25:46.528Z,6.70
2018-12-12T03:26:46.523Z,5.40
2018-12-12T03:27:46.527Z,5.90
2018-12-12T03:28:46.496Z,5.50
2018-12-12T03:29:46.483Z,6.50
2018-12-12T03:30:46.485Z,6.90
2018-12-12T03:31:46.465Z,6.50
2018-12-12T03:32:46.483Z,5.80
2018-12-12T03:33:46.446Z,6.90
2018-12-12T03:34:46.432Z,7.10
2018-12-12T03:35:46.420Z,7.60
2018-12-12T03:36:46.410Z,6.20
2018-12-12T03:37:46.421Z,7.40
2018-12-12T03:38:46.393Z,10.30
2018-12-12T03:39:46.371Z,7.70
2018-12-12T03:40:46.360Z,8.00
2018-12-12T03:41:46.353Z,6.40
2018-12-12T03:42:46.363Z,7.30
2018-12-12T03:43:46.331Z,6.90
2018-12-12T03:44:46.331Z,9.00
2018-12-12T03:45:46.314Z,5.80
2018-12-12T03:46:46.302Z,8.60
2018-12-12T03:47:46.317Z,7.70
2018-12-12T03:48:46.277Z,8.30
2018-12-12T03:49:46.267Z,8.20
2018-12-12T03:50:46.258Z,7.00
2018-12-12T03:51:46.247Z,8.50
2018-12-12T03:53:46.241Z,7.50
2018-12-12T03:54:46.213Z,8.10
2018-12-12T03:55:46.198Z,7.00
2018-12-12T03:56:46.188Z,7.40
2018-12-12T03:57:46.180Z,8.40
2018-12-12T03:58:46.188Z,8.10
2018-12-12T03:59:46.156Z,7.60
2018-12-12T04:00:46.149Z,9.60
2018-12-12T04:01:46.133Z,7.80
2018-12-12T04:02:46.121Z,7.30
2018-12-12T04:03:46.127Z,7.80
2018-12-12T04:04:46.102Z,10.60
2018-12-12T04:05:46.090Z,9.10
2018-12-12T04:06:46.079Z,7.70
2018-12-12T04:07:46.071Z,9.30
2018-12-12T04:08:46.069Z,7.50
2018-12-12T04:09:46.050Z,9.40
2018-12-12T04:10:46.034Z,10.30
2018-12-12T04:11:46.023Z,8.60
2018-12-12T04:12:46.020Z,9.10
2018-12-12T04:13:46.026Z,8.80
2018-12-12T04:14:45.992Z,9.40
2018-12-12T04:15:45.981Z,7.60
2018-12-12T04:16:45.971Z,10.60
2018-12-12T04:17:45.965Z,9.60
2018-12-12T04:18:45.965Z,10.10
2018-12-12T04:19:45.937Z,9.60
2018-12-12T04:20:45.924Z,8.80
2018-12-12T04:21:45.913Z,9.60
2018-12-12T04:22:45.907Z,9.50
2018-12-12T04:23:45.926Z,9.80
2018-12-12T04:24:45.895Z,11.30
2018-12-12T04:25:45.870Z,10.10
2018-12-12T04:26:45.860Z,10.00
2018-12-12T04:27:45.852Z,12.10
2018-12-12T04:28:45.860Z,10.50
2018-12-12T04:29:45.849Z,14.60
2018-12-12T04:30:45.813Z,11.00
2018-12-12T04:31:45.804Z,12.00
2018-12-12T04:32:45.795Z,11.00
2018-12-12T04:33:45.796Z,10.60
2018-12-12T04:34:45.769Z,10.70
2018-12-12T04:35:45.760Z,12.70
2018-12-12T04:36:45.752Z,13.30
2018-12-12T04:37:45.739Z,15.80
2018-12-12T04:38:45.751Z,11.50
2018-12-12T04:39:45.717Z,11.70
2018-12-12T04:40:45.705Z,13.00
2018-12-12T04:41:45.704Z,10.50
2018-12-12T04:42:45.696Z,12.40
2018-12-12T04:43:45.695Z,12.60
2018-12-12T04:44:45.661Z,12.90
2018-12-12T04:45:45.647Z,12.10
2018-12-12T04:46:45.638Z,14.30
2018-12-12T04:47:45.633Z,13.70
2018-12-12T04:48:45.660Z,15.00
2018-12-12T04:49:45.607Z,14.00
2018-12-12T04:50:45.595Z,14.50
2018-12-12T04:51:45.582Z,15.10
2018-12-12T04:52:45.577Z,14.00
2018-12-12T04:53:45.585Z,14.00
2018-12-12T04:54:45.554Z,17.10
2018-12-12T04:55:45.542Z,15.30
2018-12-12T04:56:45.528Z,16.00
2018-12-12T04:57:45.524Z,15.10
2018-12-12T04:58:45.538Z,14.80
2018-12-12T04:59:45.509Z,16.90
2018-12-12T05:00:45.483Z,15.50
2018-12-12T05:01:45.475Z,16.50
2018-12-12T05:02:45.462Z,16.60
2018-12-12T05:03:45.452Z,17.60
2018-12-12T05:04:45.467Z,17.60
2018-12-12T05:05:45.438Z,16.00
2018-12-12T05:06:45.417Z,18.30
2018-12-12T05:07:45.413Z,17.30
2018-12-12T05:08:45.399Z,20.20
2018-12-12T05:09:45.408Z,22.60
2018-12-12T05:10:45.377Z,20.00
2018-12-12T05:11:45.378Z,20.60
2018-12-12T05:12:45.359Z,20.60
2018-12-12T05:13:45.341Z,23.40
2018-12-12T05:14:45.352Z,21.10
2018-12-12T05:15:45.324Z,23.80
2018-12-12T05:16:45.313Z,24.00
2018-12-12T05:17:45.318Z,25.10
2018-12-12T05:18:45.291Z,23.10
2018-12-12T05:19:45.306Z,27.30
2018-12-12T05:20:45.280Z,25.50
2018-12-12T05:21:45.257Z,24.20
2018-12-12T05:22:45.242Z,26.40
2018-12-12T05:23:45.236Z,26.80
2018-12-12T05:24:45.241Z,27.20
2018-12-12T05:25:45.211Z,28.90
2018-12-12T05:26:45.204Z,28.10
2018-12-12T05:27:45.190Z,28.50
2018-12-12T05:28:45.180Z,28.40
2018-12-12T05:29:45.194Z,29.80
2018-12-12T05:30:45.163Z,28.30
2018-12-12T05:31:45.152Z,29.90
2018-12-12T05:32:45.139Z,28.70
2018-12-12T05:33:45.124Z,31.90
2018-12-12T05:34:45.136Z,32.10
2018-12-12T05:35:45.102Z,31.60
2018-12-12T05:36:45.092Z,29.50
2018-12-12T05:37:50.794Z,30.50
2018-12-12T05:38:46.079Z,29.40
2018-12-12T05:39:45.087Z,32.80
2018-12-12T05:40:45.051Z,33.40
2018-12-12T05:41:45.035Z,31.10
2018-12-12T05:42:45.023Z,31.00
2018-12-12T05:43:45.017Z,35.30
2018-12-12T05:44:45.002Z,32.40
2018-12-12T05:45:45.052Z,34.30
2018-12-12T05:46:44.987Z,33.90
2018-12-12T05:47:44.968Z,34.90
2018-12-12T05:48:44.966Z,36.20
2018-12-12T05:49:44.949Z,33.50
2018-12-12T05:50:44.955Z,33.70
2018-12-12T05:51:44.932Z,35.50
2018-12-12T05:52:44.914Z,35.60
2018-12-12T05:53:44.903Z,35.70
2018-12-12T05:54:44.893Z,35.80
2018-12-12T05:55:44.901Z,34.50
2018-12-12T05:56:44.872Z,35.30
2018-12-12T05:57:44.862Z,35.20
2018-12-12T05:58:44.852Z,36.60
2018-12-12T05:59:44.842Z,35.80
2018-12-12T06:00:44.847Z,36.60
2018-12-12T06:01:44.823Z,38.30
2018-12-12T06:02:44.807Z,35.90
2018-12-12T06:03:44.799Z,34.90
2018-12-12T06:04:44.785Z,34.10
2018-12-12T06:05:44.807Z,35.90
2018-12-12T06:06:44.767Z,34.90
2018-12-12T06:07:44.748Z,35.10
2018-12-12T06:08:44.743Z,36.50
2018-12-12T06:09:44.729Z,36.30
2018-12-12T06:10:44.749Z,38.00
2018-12-12T06:11:44.708Z,34.30
2018-12-12T06:12:44.705Z,36.20
2018-12-12T06:13:44.683Z,35.90
2018-12-12T06:14:44.736Z,36.20
2018-12-12T06:15:44.679Z,36.60
2018-12-12T06:16:44.655Z,35.10
2018-12-12T06:17:44.646Z,36.20
2018-12-12T06:18:44.633Z,35.40
2018-12-12T06:19:44.619Z,36.20
2018-12-12T06:20:44.671Z,36.40
2018-12-12T06:21:44.600Z,36.90
2018-12-12T06:22:44.588Z,34.70
2018-12-12T06:23:44.593Z,38.20
2018-12-12T06:24:44.570Z,36.20
2018-12-12T06:25:44.573Z,38.90
2018-12-12T06:26:44.553Z,34.50
2018-12-12T06:27:44.540Z,36.60
2018-12-12T06:28:44.521Z,35.80
2018-12-12T06:29:44.512Z,36.90
2018-12-12T06:30:44.523Z,34.50
2018-12-12T06:31:44.496Z,37.70
2018-12-12T06:32:44.479Z,35.90
2018-12-12T06:33:44.470Z,35.40
2018-12-12T06:34:44.459Z,35.30
2018-12-12T06:35:44.467Z,34.60
2018-12-12T06:36:44.437Z,35.30
2018-12-12T06:37:44.424Z,35.00
2018-12-12T06:38:44.409Z,34.20
2018-12-12T06:39:44.399Z,37.60
2018-12-12T06:40:44.417Z,34.80
2018-12-12T06:41:44.387Z,34.30
2018-12-12T06:42:44.371Z,34.80
2018-12-12T06:43:44.359Z,35.10
2018-12-12T06:44:44.346Z,33.00
2018-12-12T06:45:44.363Z,30.90
2018-12-12T06:46:44.324Z,33.70
2018-12-12T06:47:44.316Z,30.20
2018-12-12T06:48:44.306Z,33.60
2018-12-12T06:49:44.297Z,30.30
2018-12-12T06:50:44.314Z,32.00
2018-12-12T06:51:44.269Z,33.30
2018-12-12T06:52:44.264Z,30.10
2018-12-12T06:53:44.245Z,33.30
2018-12-12T06:54:44.247Z,31.20
2018-12-12T06:55:44.261Z,31.20
2018-12-12T06:56:44.218Z,33.10
2018-12-12T06:57:44.206Z,32.10
2018-12-12T06:58:44.199Z,31.50
2018-12-12T06:59:44.183Z,30.80
2018-12-12T07:00:44.176Z,31.70
2018-12-12T07:01:44.175Z,31.30
2018-12-12T07:02:44.149Z,31.80
2018-12-12T07:03:44.143Z,33.40
2018-12-12T07:04:44.126Z,30.70
2018-12-12T07:05:44.119Z,37.20
2018-12-12T07:06:44.122Z,34.10
2018-12-12T07:07:44.097Z,33.60
2018-12-12T07:08:44.083Z,32.10
2018-12-12T07:09:44.079Z,32.50
2018-12-12T07:10:44.069Z,33.60
2018-12-12T07:11:44.068Z,33.00
2018-12-12T07:12:44.045Z,33.80
2018-12-12T07:13:44.045Z,35.40
2018-12-12T07:14:44.022Z,33.80
2018-12-12T07:15:44.029Z,34.10
2018-12-12T07:16:44.038Z,34.20
2018-12-12T07:17:43.992Z,34.20
2018-12-12T07:18:43.983Z,34.10
2018-12-12T07:19:43.962Z,33.30
2018-12-12T07:20:43.957Z,35.30
2018-12-12T07:21:43.961Z,32.80
2018-12-12T07:22:43.931Z,35.00
2018-12-12T07:23:43.937Z,35.30
2018-12-12T07:24:43.911Z,34.70
2018-12-12T07:25:43.901Z,31.90
2018-12-12T07:26:43.929Z,35.10
2018-12-12T07:27:43.874Z,34.10
2018-12-12T07:28:44.638Z,32.50
2018-12-12T07:29:43.857Z,30.50
2018-12-12T07:30:43.848Z,29.90
2018-12-12T07:31:43.850Z,31.10
2018-12-12T07:32:43.827Z,37.20
2018-12-12T07:33:43.811Z,31.80
2018-12-12T07:34:43.803Z,31.40
2018-12-12T07:35:43.789Z,32.50
2018-12-12T07:36:43.795Z,29.30
2018-12-12T07:37:43.796Z,28.50
2018-12-12T07:38:43.757Z,29.40
2018-12-12T07:39:43.749Z,26.40
2018-12-12T07:40:43.736Z,27.20
2018-12-12T07:41:43.720Z,28.20
2018-12-12T07:42:43.723Z,28.40
2018-12-12T07:43:43.707Z,27.90
2018-12-12T07:44:43.689Z,25.40
2018-12-12T07:45:43.680Z,24.00
2018-12-12T07:46:43.670Z,22.50
2018-12-12T07:47:43.707Z,22.90
2018-12-12T07:48:43.641Z,22.40
2018-12-12T07:49:43.671Z,20.20
2018-12-12T07:50:44.168Z,22.50
2018-12-12T07:51:43.611Z,22.40
2018-12-12T07:52:43.623Z,20.60
2018-12-12T07:53:43.593Z,22.20
2018-12-12T07:54:43.582Z,22.80
2018-12-12T07:55:43.570Z,23.00
2018-12-12T07:56:43.555Z,21.20
2018-12-12T07:57:43.567Z,21.30
2018-12-12T07:58:43.542Z,22.00
2018-12-12T07:59:43.523Z,21.70
2018-12-12T08:00:43.513Z,22.50
2018-12-12T08:01:43.501Z,20.50
2018-12-12T08:02:43.508Z,21.60
2018-12-12T08:03:43.483Z,22.90
2018-12-12T08:04:43.476Z,21.90
2018-12-12T08:05:43.459Z,20.00
2018-12-12T08:06:43.450Z,24.70
2018-12-12T08:07:43.459Z,20.20
2018-12-12T08:08:43.427Z,23.00
2018-12-12T08:09:43.420Z,23.00
2018-12-12T08:10:43.399Z,22.70
2018-12-12T08:11:43.399Z,23.70
2018-12-12T08:12:43.405Z,22.40
2018-12-12T08:13:43.371Z,22.20
2018-12-12T08:14:43.367Z,21.80
2018-12-12T08:15:43.352Z,21.50
2018-12-12T08:16:43.335Z,20.20
2018-12-12T08:17:43.345Z,20.70
2018-12-12T08:18:43.320Z,20.00
2018-12-12T08:19:43.303Z,18.80
2018-12-12T08:20:43.297Z,24.00
2018-12-12T08:21:43.284Z,19.00
2018-12-12T08:22:43.317Z,23.20
2018-12-12T08:23:43.259Z,17.30
2018-12-12T08:24:43.247Z,20.20
2018-12-12T08:25:43.239Z,20.40
2018-12-12T08:26:43.233Z,18.70
2018-12-12T08:27:43.215Z,16.90
2018-12-12T08:28:43.236Z,18.50
2018-12-12T08:29:43.197Z,18.70
2018-12-12T08:30:43.187Z,15.30
2018-12-12T08:31:43.173Z,16.90
2018-12-12T08:32:43.165Z,16.20
2018-12-12T08:33:43.169Z,17.40
2018-12-12T08:34:43.141Z,17.60
2018-12-12T08:35:43.127Z,18.10
2018-12-12T08:36:43.119Z,16.70
2018-12-12T08:37:43.109Z,18.80
2018-12-12T08:38:43.128Z,18.40
2018-12-12T08:39:43.087Z,15.90
2018-12-12T08:40:43.074Z,16.20
2018-12-12T08:41:43.061Z,16.20
2018-12-12T08:42:43.057Z,19.60
2018-12-12T08:43:43.057Z,18.40
2018-12-12T08:44:43.033Z,15.30
2018-12-12T08:45:43.016Z,16.40
2018-12-12T08:46:43.007Z,15.90
2018-12-12T08:47:42.997Z,15.10
2018-12-12T08:48:43.010Z,16.10
2018-12-12T08:49:42.976Z,15.10
2018-12-12T08:50:42.969Z,16.80
2018-12-12T08:51:42.966Z,18.40
2018-12-12T08:52:42.939Z,16.50
2018-12-12T08:53:42.979Z,15.90
2018-12-12T08:54:42.923Z,15.50
2018-12-12T08:55:42.909Z,16.10
2018-12-12T08:56:42.901Z,16.20
2018-12-12T08:57:42.887Z,16.00
2018-12-12T08:58:42.901Z,14.20
2018-12-12T08:59:42.867Z,13.30
2018-12-12T09:00:42.855Z,17.50
2018-12-12T09:01:42.844Z,17.40
2018-12-12T09:02:42.828Z,16.60
2018-12-12T09:03:42.845Z,16.20
2018-12-12T09:04:42.807Z,13.70
2018-12-12T09:05:42.861Z,14.80
2018-12-12T09:06:42.792Z,14.40
2018-12-12T09:07:42.773Z,17.30
2018-12-12T09:08:42.775Z,14.50
2018-12-12T09:09:42.776Z,15.00
2018-12-12T09:10:42.749Z,16.30
2018-12-12T09:11:42.727Z,13.00
2018-12-12T09:12:42.722Z,13.50
2018-12-12T09:13:42.711Z,15.20
2018-12-12T09:14:42.713Z,16.40
2018-12-12T09:15:42.754Z,16.00
2018-12-12T09:16:42.678Z,15.70
2018-12-12T09:17:42.681Z,16.30
2018-12-12T09:18:42.657Z,15.40
2018-12-12T09:19:42.679Z,15.90
2018-12-12T09:20:42.630Z,17.30
2018-12-12T09:21:42.627Z,15.10
2018-12-12T09:22:42.609Z,13.60
2018-12-12T09:23:42.605Z,17.50
2018-12-12T09:24:42.625Z,15.20
2018-12-12T09:25:42.580Z,15.40
2018-12-12T09:26:42.576Z,14.10
2018-12-12T09:27:42.558Z,15.30
2018-12-12T09:28:42.542Z,14.30
2018-12-12T09:29:42.555Z,14.50
2018-12-12T09:30:42.524Z,14.40
2018-12-12T09:31:42.512Z,13.70
2018-12-12T09:32:42.499Z,14.70
2018-12-12T09:33:42.488Z,19.60
2018-12-12T09:34:42.493Z,15.20
2018-12-12T09:35:42.464Z,16.80
2018-12-12T09:36:42.461Z,15.90
2018-12-12T09:37:42.453Z,15.10
2018-12-12T09:38:42.438Z,17.50
2018-12-12T09:39:42.453Z,13.00
2018-12-12T09:40:42.419Z,15.70
2018-12-12T09:41:42.415Z,17.70
2018-12-12T09:42:42.403Z,13.60
2018-12-12T09:43:42.381Z,14.50
2018-12-12T09:44:42.409Z,14.00
2018-12-12T09:45:42.353Z,15.70
2018-12-12T09:46:42.345Z,17.80
2018-12-12T09:47:42.337Z,17.00
2018-12-12T09:48:42.331Z,15.20
2018-12-12T09:49:42.331Z,14.30
2018-12-12T09:50:42.306Z,14.30
2018-12-12T09:51:42.293Z,16.40
2018-12-12T09:52:42.281Z,17.20
2018-12-12T09:53:42.269Z,14.80
2018-12-12T09:54:42.278Z,16.50
2018-12-12T09:55:42.253Z,14.20
2018-12-12T09:56:42.237Z,13.90
2018-12-12T09:57:42.227Z,16.10
2018-12-12T09:58:42.213Z,15.70
2018-12-12T09:59:42.219Z,13.00
2018-12-12T10:00:42.214Z,14.70
2018-12-12T10:01:42.179Z,12.80
2018-12-12T10:02:42.171Z,12.40
2018-12-12T10:03:42.159Z,13.00
2018-12-12T10:04:42.149Z,13.10
2018-12-12T10:05:42.163Z,15.80
2018-12-12T10:06:42.126Z,12.30
2018-12-12T10:07:42.114Z,13.60
2018-12-12T10:08:42.106Z,13.50
2018-12-12T10:09:42.098Z,14.50
2018-12-12T10:10:42.098Z,15.10
2018-12-12T10:11:42.069Z,12.70
2018-12-12T10:12:42.061Z,12.10
2018-12-12T10:13:42.051Z,14.90
2018-12-12T10:14:42.043Z,13.00
2018-12-12T10:15:42.062Z,12.40
2018-12-12T10:16:42.015Z,12.90
2018-12-12T10:17:42.001Z,12.90
2018-12-12T10:18:41.997Z,12.60
2018-12-12T10:19:41.983Z,13.80
2018-12-12T10:20:41.999Z,14.50
2018-12-12T10:21:41.961Z,12.50
2018-12-12T10:22:41.954Z,11.50
2018-12-12T10:23:41.938Z,13.90
2018-12-12T10:24:41.931Z,14.50
2018-12-12T10:25:41.933Z,14.10
2018-12-12T10:26:41.904Z,11.70
2018-12-12T10:27:41.892Z,13.30
2018-12-12T10:28:41.880Z,11.70
2018-12-12T10:29:41.874Z,12.90
2018-12-12T10:30:41.881Z,16.00
2018-12-12T10:31:41.855Z,12.00
2018-12-12T10:32:41.842Z,15.70
2018-12-12T10:33:41.830Z,16.50
2018-12-12T10:34:41.815Z,13.10
2018-12-12T10:35:41.827Z,12.00
2018-12-12T10:36:41.800Z,14.20
2018-12-12T10:37:41.779Z,13.00
2018-12-12T10:38:41.769Z,16.50
2018-12-12T10:39:41.758Z,23.80
2018-12-12T10:40:41.785Z,21.70
2018-12-12T10:41:41.744Z,17.60
2018-12-12T10:42:41.731Z,16.40
2018-12-12T10:43:41.720Z,20.40
2018-12-12T10:44:41.704Z,15.10
2018-12-12T10:45:41.721Z,30.40
2018-12-12T10:46:41.685Z,25.20
2018-12-12T10:47:41.671Z,15.80
2018-12-12T10:48:41.661Z,23.40
2018-12-12T10:49:41.650Z,26.40
2018-12-12T10:50:41.644Z,15.70
2018-12-12T10:51:41.663Z,14.90
2018-12-12T10:52:41.618Z,16.30
2018-12-12T10:53:41.606Z,17.30
2018-12-12T10:54:41.595Z,13.80
2018-12-12T10:55:41.591Z,27.10
2018-12-12T10:56:41.594Z,16.10
2018-12-12T10:57:41.587Z,19.00
2018-12-12T10:58:41.555Z,21.00
2018-12-12T10:59:41.539Z,19.70
2018-12-12T11:00:41.526Z,15.50
2018-12-12T11:01:41.540Z,15.30
2018-12-12T11:02:41.509Z,19.70
2018-12-12T11:03:44.427Z,16.70
2018-12-12T11:04:41.487Z,15.20
2018-12-12T11:05:41.473Z,14.50
2018-12-12T11:06:41.483Z,17.20
2018-12-12T11:07:41.454Z,16.30
2018-12-12T11:08:41.446Z,15.00
2018-12-12T11:09:41.433Z,17.00
2018-12-12T11:10:41.421Z,19.40
2018-12-12T11:11:41.429Z,16.40
2018-12-12T11:12:41.395Z,15.80
2018-12-12T11:13:41.381Z,13.70
2018-12-12T11:14:41.370Z,15.80
2018-12-12T11:15:41.359Z,15.50
2018-12-12T11:16:41.373Z,14.20
2018-12-12T11:17:41.343Z,15.40
2018-12-12T11:18:41.327Z,15.20
2018-12-12T11:19:41.315Z,13.70
2018-12-12T11:20:41.305Z,13.30
2018-12-12T11:21:41.317Z,15.20
2018-12-12T11:22:41.281Z,17.80
2018-12-12T11:23:41.275Z,15.30
2018-12-12T11:24:41.261Z,15.90
2018-12-12T11:25:41.256Z,16.20
2018-12-12T11:26:41.253Z,18.10
2018-12-12T11:27:41.232Z,14.80
2018-12-12T11:28:41.220Z,17.90
2018-12-12T11:29:41.205Z,16.50
2018-12-12T11:30:41.208Z,16.40
2018-12-12T11:31:41.332Z,20.70
2018-12-12T11:32:41.173Z,18.30
2018-12-12T11:33:41.163Z,16.20
2018-12-12T11:34:41.155Z,16.00
2018-12-12T11:35:41.138Z,16.10
2018-12-12T11:36:41.153Z,16.40
2018-12-12T11:37:41.113Z,17.50
2018-12-12T11:38:41.104Z,16.50
2018-12-12T11:39:41.092Z,15.50
2018-12-12T11:40:41.087Z,15.70
2018-12-12T11:41:41.093Z,15.50
2018-12-12T11:42:41.063Z,14.40
2018-12-12T11:43:41.057Z,14.70
2018-12-12T11:44:41.036Z,16.60
2018-12-12T11:45:41.022Z,18.20
2018-12-12T11:46:41.032Z,16.50
2018-12-12T11:47:41.022Z,16.30
2018-12-12T11:48:41.001Z,18.20
2018-12-12T11:49:40.985Z,16.70
2018-12-12T11:50:40.969Z,18.60
2018-12-12T11:51:40.978Z,18.60
2018-12-12T11:52:40.968Z,20.00
2018-12-12T11:53:40.960Z,18.40
2018-12-12T11:54:40.925Z,17.30
2018-12-12T11:55:40.913Z,19.30
2018-12-12T11:56:40.903Z,18.70
2018-12-12T11:57:40.916Z,18.10
2018-12-12T11:58:40.882Z,19.30
2018-12-12T11:59:40.867Z,18.40
2018-12-12T12:00:40.866Z,17.70
2018-12-12T12:01:40.854Z,17.70
2018-12-12T12:02:40.864Z,19.00
2018-12-12T12:03:40.830Z,16.10
2018-12-12T12:04:40.815Z,18.00
2018-12-12T12:05:40.815Z,16.10
2018-12-12T12:06:40.803Z,21.60
2018-12-12T12:07:40.807Z,19.80
2018-12-12T12:08:40.784Z,17.80
2018-12-12T12:09:40.761Z,20.10
2018-12-12T12:10:40.751Z,16.30
2018-12-12T12:11:40.743Z,16.80
2018-12-12T12:12:40.761Z,17.20
2018-12-12T12:13:40.717Z,17.20
2018-12-12T12:14:40.707Z,18.90
2018-12-12T12:15:40.697Z,16.10
2018-12-12T12:16:40.683Z,16.50
2018-12-12T12:17:40.671Z,16.20
2018-12-12T12:18:40.693Z,16.80
2018-12-12T12:19:40.651Z,18.90
2018-12-12T12:20:40.638Z,19.80
2018-12-12T12:21:40.627Z,17.50
2018-12-12T12:22:40.621Z,17.80
2018-12-12T12:23:40.619Z,21.30
2018-12-12T12:24:40.593Z,19.90
2018-12-12T12:25:40.580Z,20.90
2018-12-12T12:26:40.581Z,18.80
2018-12-12T12:27:40.560Z,20.30
2018-12-12T12:28:40.567Z,19.70
2018-12-12T12:29:40.540Z,18.30
2018-12-12T12:30:40.533Z,17.80
2018-12-12T12:31:40.514Z,21.10
2018-12-12T12:32:40.498Z,20.10
2018-12-12T12:33:40.509Z,20.30
2018-12-12T12:34:40.480Z,20.30
2018-12-12T12:35:40.470Z,19.60
2018-12-12T12:36:40.459Z,21.10
2018-12-12T12:37:40.450Z,19.50
2018-12-12T12:38:40.447Z,19.10
2018-12-12T12:39:40.421Z,21.50
2018-12-12T12:40:40.415Z,19.70
2018-12-12T12:41:40.402Z,21.10
2018-12-12T12:42:40.390Z,22.30
2018-12-12T12:43:40.403Z,20.90
2018-12-12T12:44:40.370Z,20.80
2018-12-12T12:45:40.355Z,22.70
2018-12-12T12:46:40.349Z,20.70
2018-12-12T12:47:40.335Z,22.10
2018-12-12T12:48:40.336Z,20.80
2018-12-12T12:49:40.311Z,21.80
2018-12-12T12:50:40.307Z,23.60
2018-12-12T12:51:40.285Z,21.20
2018-12-12T12:52:40.283Z,21.10
2018-12-12T12:53:40.284Z,21.20
2018-12-12T12:54:40.259Z,21.80
2018-12-12T12:55:40.253Z,21.60
2018-12-12T12:56:40.234Z,20.60
2018-12-12T12:57:40.222Z,22.00
2018-12-12T12:58:40.255Z,20.30
2018-12-12T12:59:40.235Z,20.50
2018-12-12T13:00:40.191Z,23.40
2018-12-12T13:01:40.189Z,24.10
2018-12-12T13:02:40.170Z,21.40